Greenwood, Wisconsin
Current Conditions -  °F | °C
As of 9:54 PM on Saturday 20 Dec 2014 (Local Time) from KMFI Reporting Station
Haze Haze  
Wind Chill: 21°   Ceiling: 800
Heat Index: 29°   Visibility: 5mi
Dew Point: 25°   Wind: 8mph
Humidity: 85%   Direction: 170°S
Pressure: 30.14"   Gusts: NA
Location:  44.77°N, 90.6°W
Report Text: KMFI 210354Z AUTO 17007KT 5SM BR OVC008 M02/M04 A3014 RMK AO2 SLP226 T10171039
Loading
Personal Weather Stations






























Interactive Weather Map New forecast layout! Learn more

10-Day Weather Forecast

Advertisements
Track Severe Weather on mobile